Grand Marsh, Wisconsin
Current Conditions -  °F | °C
As of 6:56 PM on Wednesday 26 Nov 2014 (Local Time) from KY50 Reporting Station
Haze Haze  
Wind Chill: 17°   Ceiling: 7000
Heat Index: 17°   Visibility: 4mi
Dew Point: 15°   Wind: 0mph
Humidity: 92%   Direction: NA
Pressure: 30.2"   Gusts: NA
Location:  43.89°N, 89.71°W
Report Text: KY50 270056Z AUTO 00000KT 4SM BR OVC070 M08/M09 A3020 RMK AO2 TSNO T10831094 SLP241
Loading
Personal Weather Stations






























Interactive Weather Map New forecast layout! Learn more

10-Day Weather Forecast

Advertisements
Track Severe Weather on mobile